sensor_id;sensor_type;location;lat;lon;timestamp;P1;durP1;ratioP1;P2;durP2;ratioP2
3543;SDS011;1786;52.870;9.578;2022-12-07T00:01:26;18.20;;;12.00;;
3543;SDS011;1786;52.870;9.578;2022-12-07T00:03:55;25.80;;;11.67;;
3543;SDS011;1786;52.870;9.578;2022-12-07T00:06:32;22.53;;;12.63;;
3543;SDS011;1786;52.870;9.578;2022-12-07T00:09:01;16.60;;;11.80;;
3543;SDS011;1786;52.870;9.578;2022-12-07T00:11:28;21.73;;;12.57;;
3543;SDS011;1786;52.870;9.578;2022-12-07T00:13:56;17.10;;;11.87;;
3543;SDS011;1786;52.870;9.578;2022-12-07T00:16:25;23.80;;;12.27;;
3543;SDS011;1786;52.870;9.578;2022-12-07T00:18:54;15.80;;;12.30;;
3543;SDS011;1786;52.870;9.578;2022-12-07T00:21:22;17.17;;;12.07;;
3543;SDS011;1786;52.870;9.578;2022-12-07T00:23:51;19.43;;;12.33;;
3543;SDS011;1786;52.870;9.578;2022-12-07T00:26:20;16.10;;;12.00;;
3543;SDS011;1786;52.870;9.578;2022-12-07T00:28:50;17.87;;;12.07;;
3543;SDS011;1786;52.870;9.578;2022-12-07T00:31:18;18.13;;;10.63;;
3543;SDS011;1786;52.870;9.578;2022-12-07T00:33:46;17.57;;;12.10;;
3543;SDS011;1786;52.870;9.578;2022-12-07T00:36:15;18.13;;;11.80;;
3543;SDS011;1786;52.870;9.578;2022-12-07T00:38:51;18.93;;;11.90;;
3543;SDS011;1786;52.870;9.578;2022-12-07T00:41:19;22.47;;;12.90;;
3543;SDS011;1786;52.870;9.578;2022-12-07T00:43:48;16.60;;;12.13;;
3543;SDS011;1786;52.870;9.578;2022-12-07T00:46:15;18.33;;;12.00;;
3543;SDS011;1786;52.870;9.578;2022-12-07T00:48:43;16.50;;;12.20;;
3543;SDS011;1786;52.870;9.578;2022-12-07T00:51:10;17.37;;;11.70;;
3543;SDS011;1786;52.870;9.578;2022-12-07T00:53:38;16.30;;;10.53;;
3543;SDS011;1786;52.870;9.578;2022-12-07T00:56:14;14.47;;;10.70;;
3543;SDS011;1786;52.870;9.578;2022-12-07T00:58:42;17.70;;;11.10;;
3543;SDS011;1786;52.870;9.578;2022-12-07T01:01:10;15.53;;;11.17;;
3543;SDS011;1786;52.870;9.578;2022-12-07T01:03:37;16.90;;;11.40;;
3543;SDS011;1786;52.870;9.578;2022-12-07T01:06:04;16.63;;;11.10;;
3543;SDS011;1786;52.870;9.578;2022-12-07T01:08:32;12.93;;;10.40;;
3543;SDS011;1786;52.870;9.578;2022-12-07T01:11:00;14.67;;;9.97;;
3543;SDS011;1786;52.870;9.578;2022-12-07T01:13:29;12.97;;;10.57;;
3543;SDS011;1786;52.870;9.578;2022-12-07T01:15:57;12.20;;;10.30;;
3543;SDS011;1786;52.870;9.578;2022-12-07T01:18:26;16.27;;;12.33;;
3543;SDS011;1786;52.870;9.578;2022-12-07T01:20:58;12.47;;;9.77;;
3543;SDS011;1786;52.870;9.578;2022-12-07T01:23:30;14.67;;;10.50;;
3543;SDS011;1786;52.870;9.578;2022-12-07T01:25:57;15.20;;;10.37;;
3543;SDS011;1786;52.870;9.578;2022-12-07T01:28:25;14.13;;;10.13;;
3543;SDS011;1786;52.870;9.578;2022-12-07T01:31:06;16.27;;;10.27;;
3543;SDS011;1786;52.870;9.578;2022-12-07T01:33:37;13.93;;;9.30;;
3543;SDS011;1786;52.870;9.578;2022-12-07T01:36:07;10.67;;;9.30;;
3543;SDS011;1786;52.870;9.578;2022-12-07T01:38:42;16.00;;;9.73;;
3543;SDS011;1786;52.870;9.578;2022-12-07T01:41:10;14.40;;;9.20;;
3543;SDS011;1786;52.870;9.578;2022-12-07T01:49:28;12.97;;;9.23;;
3543;SDS011;1786;52.870;9.578;2022-12-07T01:54:41;14.77;;;9.70;;
3543;SDS011;1786;52.870;9.578;2022-12-07T01:57:10;12.30;;;8.60;;
3543;SDS011;1786;52.870;9.578;2022-12-07T01:59:39;10.97;;;7.80;;
3543;SDS011;1786;52.870;9.578;2022-12-07T02:02:10;11.60;;;8.00;;
3543;SDS011;1786;52.870;9.578;2022-12-07T02:04:44;13.40;;;8.40;;
3543;SDS011;1786;52.870;9.578;2022-12-07T02:07:12;12.17;;;7.63;;
3543;SDS011;1786;52.870;9.578;2022-12-07T02:09:39;12.03;;;7.43;;
3543;SDS011;1786;52.870;9.578;2022-12-07T02:12:05;10.93;;;8.50;;
3543;SDS011;1786;52.870;9.578;2022-12-07T02:14:32;8.93;;;7.60;;
3543;SDS011;1786;52.870;9.578;2022-12-07T02:17:06;11.90;;;7.60;;
3543;SDS011;1786;52.870;9.578;2022-12-07T02:20:07;11.63;;;7.63;;
3543;SDS011;1786;52.870;9.578;2022-12-07T02:28:34;8.10;;;6.97;;
3543;SDS011;1786;52.870;9.578;2022-12-07T02:31:05;10.80;;;7.10;;
3543;SDS011;1786;52.870;9.578;2022-12-07T02:33:40;11.87;;;6.77;;
3543;SDS011;1786;52.870;9.578;2022-12-07T02:36:28;10.47;;;7.27;;
3543;SDS011;1786;52.870;9.578;2022-12-07T02:39:03;8.43;;;6.33;;
3543;SDS011;1786;52.870;9.578;2022-12-07T02:41:40;7.63;;;6.83;;
3543;SDS011;1786;52.870;9.578;2022-12-07T02:44:11;10.13;;;6.67;;
3543;SDS011;1786;52.870;9.578;2022-12-07T02:46:44;8.53;;;6.47;;
3543;SDS011;1786;52.870;9.578;2022-12-07T02:49:17;10.13;;;6.30;;
3543;SDS011;1786;52.870;9.578;2022-12-07T02:51:45;9.20;;;6.10;;
3543;SDS011;1786;52.870;9.578;2022-12-07T02:54:16;7.47;;;6.17;;
3543;SDS011;1786;52.870;9.578;2022-12-07T03:00:05;10.57;;;5.17;;
3543;SDS011;1786;52.870;9.578;2022-12-07T03:02:36;7.80;;;5.60;;
3543;SDS011;1786;52.870;9.578;2022-12-07T03:10:28;6.57;;;5.67;;
3543;SDS011;1786;52.870;9.578;2022-12-07T03:13:34;8.17;;;5.13;;
3543;SDS011;1786;52.870;9.578;2022-12-07T03:16:15;8.63;;;5.13;;
3543;SDS011;1786;52.870;9.578;2022-12-07T03:18:50;7.90;;;5.00;;
3543;SDS011;1786;52.870;9.578;2022-12-07T03:21:26;7.00;;;5.17;;
3543;SDS011;1786;52.870;9.578;2022-12-07T03:23:58;10.20;;;4.43;;
3543;SDS011;1786;52.870;9.578;2022-12-07T03:26:34;8.53;;;5.10;;
3543;SDS011;1786;52.870;9.578;2022-12-07T03:29:06;4.47;;;3.80;;
3543;SDS011;1786;52.870;9.578;2022-12-07T03:31:39;9.83;;;4.33;;
3543;SDS011;1786;52.870;9.578;2022-12-07T03:34:11;5.60;;;4.57;;
3543;SDS011;1786;52.870;9.578;2022-12-07T03:41:48;6.10;;;4.50;;
3543;SDS011;1786;52.870;9.578;2022-12-07T03:44:15;4.30;;;3.90;;
3543;SDS011;1786;52.870;9.578;2022-12-07T03:46:43;6.30;;;4.73;;
3543;SDS011;1786;52.870;9.578;2022-12-07T03:49:23;7.33;;;4.07;;
3543;SDS011;1786;52.870;9.578;2022-12-07T03:52:02;7.90;;;4.63;;
3543;SDS011;1786;52.870;9.578;2022-12-07T03:57:35;10.00;;;5.13;;
3543;SDS011;1786;52.870;9.578;2022-12-07T04:00:04;6.27;;;3.97;;
3543;SDS011;1786;52.870;9.578;2022-12-07T04:02:38;5.90;;;4.37;;
3543;SDS011;1786;52.870;9.578;2022-12-07T04:05:05;7.57;;;4.53;;
3543;SDS011;1786;52.870;9.578;2022-12-07T04:07:32;6.80;;;3.70;;
3543;SDS011;1786;52.870;9.578;2022-12-07T04:09:59;7.97;;;3.93;;
3543;SDS011;1786;52.870;9.578;2022-12-07T04:12:27;10.77;;;4.50;;
3543;SDS011;1786;52.870;9.578;2022-12-07T04:14:54;6.10;;;3.70;;
3543;SDS011;1786;52.870;9.578;2022-12-07T04:17:21;7.00;;;3.80;;
3543;SDS011;1786;52.870;9.578;2022-12-07T04:19:47;3.87;;;3.57;;
3543;SDS011;1786;52.870;9.578;2022-12-07T04:22:14;5.73;;;4.03;;
3543;SDS011;1786;52.870;9.578;2022-12-07T04:24:41;5.67;;;3.77;;
3543;SDS011;1786;52.870;9.578;2022-12-07T04:27:07;5.30;;;3.20;;
3543;SDS011;1786;52.870;9.578;2022-12-07T04:29:35;4.83;;;4.30;;
3543;SDS011;1786;52.870;9.578;2022-12-07T04:32:01;4.97;;;3.47;;
3543;SDS011;1786;52.870;9.578;2022-12-07T04:34:28;6.87;;;3.67;;
3543;SDS011;1786;52.870;9.578;2022-12-07T04:36:55;4.23;;;3.83;;
3543;SDS011;1786;52.870;9.578;2022-12-07T04:39:23;7.53;;;3.40;;
3543;SDS011;1786;52.870;9.578;2022-12-07T04:41:55;5.80;;;4.10;;
3543;SDS011;1786;52.870;9.578;2022-12-07T04:44:22;6.20;;;3.13;;
3543;SDS011;1786;52.870;9.578;2022-12-07T04:46:51;5.20;;;3.37;;
3543;SDS011;1786;52.870;9.578;2022-12-07T04:49:18;3.17;;;2.87;;
3543;SDS011;1786;52.870;9.578;2022-12-07T04:51:45;6.27;;;3.07;;
3543;SDS011;1786;52.870;9.578;2022-12-07T04:54:13;6.23;;;2.80;;
3543;SDS011;1786;52.870;9.578;2022-12-07T04:56:40;3.33;;;3.10;;
3543;SDS011;1786;52.870;9.578;2022-12-07T04:59:09;4.27;;;2.97;;
3543;SDS011;1786;52.870;9.578;2022-12-07T05:01:37;4.20;;;2.50;;
3543;SDS011;1786;52.870;9.578;2022-12-07T05:04:04;6.93;;;2.73;;
3543;SDS011;1786;52.870;9.578;2022-12-07T05:06:31;4.13;;;2.93;;
3543;SDS011;1786;52.870;9.578;2022-12-07T05:08:58;1.87;;;1.80;;
3543;SDS011;1786;52.870;9.578;2022-12-07T05:11:25;5.70;;;3.57;;
3543;SDS011;1786;52.870;9.578;2022-12-07T05:14:11;2.17;;;1.90;;
3543;SDS011;1786;52.870;9.578;2022-12-07T05:16:38;3.33;;;3.03;;
3543;SDS011;1786;52.870;9.578;2022-12-07T05:19:05;4.17;;;3.60;;
3543;SDS011;1786;52.870;9.578;2022-12-07T05:21:34;4.77;;;2.63;;
3543;SDS011;1786;52.870;9.578;2022-12-07T05:24:01;2.10;;;2.00;;
3543;SDS011;1786;52.870;9.578;2022-12-07T05:26:28;7.27;;;2.57;;
3543;SDS011;1786;52.870;9.578;2022-12-07T05:28:55;3.60;;;1.93;;
3543;SDS011;1786;52.870;9.578;2022-12-07T05:31:23;8.10;;;2.00;;
3543;SDS011;1786;52.870;9.578;2022-12-07T05:33:51;4.30;;;2.13;;
3543;SDS011;1786;52.870;9.578;2022-12-07T05:36:18;6.50;;;2.13;;
3543;SDS011;1786;52.870;9.578;2022-12-07T05:38:46;3.83;;;1.80;;
3543;SDS011;1786;52.870;9.578;2022-12-07T05:41:17;2.23;;;2.07;;
3543;SDS011;1786;52.870;9.578;2022-12-07T05:44:04;10.40;;;2.23;;
3543;SDS011;1786;52.870;9.578;2022-12-07T05:46:31;3.87;;;2.30;;
3543;SDS011;1786;52.870;9.578;2022-12-07T05:48:58;2.60;;;2.17;;
3543;SDS011;1786;52.870;9.578;2022-12-07T05:51:44;6.03;;;1.97;;
3543;SDS011;1786;52.870;9.578;2022-12-07T05:54:11;2.70;;;2.10;;
3543;SDS011;1786;52.870;9.578;2022-12-07T05:56:38;3.20;;;1.93;;
3543;SDS011;1786;52.870;9.578;2022-12-07T05:59:04;2.23;;;2.13;;
3543;SDS011;1786;52.870;9.578;2022-12-07T06:04:17;6.70;;;2.57;;
3543;SDS011;1786;52.870;9.578;2022-12-07T06:06:44;7.90;;;2.57;;
3543;SDS011;1786;52.870;9.578;2022-12-07T06:09:10;2.93;;;2.30;;
3543;SDS011;1786;52.870;9.578;2022-12-07T06:11:39;3.00;;;2.80;;
3543;SDS011;1786;52.870;9.578;2022-12-07T06:14:25;3.70;;;3.03;;
3543;SDS011;1786;52.870;9.578;2022-12-07T06:16:51;5.27;;;3.47;;
3543;SDS011;1786;52.870;9.578;2022-12-07T06:19:18;6.53;;;3.77;;
3543;SDS011;1786;52.870;9.578;2022-12-07T06:21:45;8.13;;;4.13;;
3543;SDS011;1786;52.870;9.578;2022-12-07T06:24:12;5.40;;;4.13;;
3543;SDS011;1786;52.870;9.578;2022-12-07T06:26:40;8.23;;;4.50;;
3543;SDS011;1786;52.870;9.578;2022-12-07T06:29:07;5.57;;;4.97;;
3543;SDS011;1786;52.870;9.578;2022-12-07T06:31:34;16.33;;;6.03;;
3543;SDS011;1786;52.870;9.578;2022-12-07T06:34:03;9.30;;;5.00;;
3543;SDS011;1786;52.870;9.578;2022-12-07T06:36:32;6.03;;;4.70;;
3543;SDS011;1786;52.870;9.578;2022-12-07T06:38:59;7.57;;;5.77;;
3543;SDS011;1786;52.870;9.578;2022-12-07T06:41:26;13.73;;;4.10;;
3543;SDS011;1786;52.870;9.578;2022-12-07T06:43:54;4.23;;;3.83;;
3543;SDS011;1786;52.870;9.578;2022-12-07T06:46:22;5.13;;;3.87;;
3543;SDS011;1786;52.870;9.578;2022-12-07T06:48:49;5.20;;;3.80;;
3543;SDS011;1786;52.870;9.578;2022-12-07T06:51:16;7.83;;;3.90;;
3543;SDS011;1786;52.870;9.578;2022-12-07T06:53:43;5.80;;;3.10;;
3543;SDS011;1786;52.870;9.578;2022-12-07T06:56:09;6.57;;;3.40;;
3543;SDS011;1786;52.870;9.578;2022-12-07T06:58:36;5.03;;;3.47;;
3543;SDS011;1786;52.870;9.578;2022-12-07T07:01:07;5.13;;;3.07;;
3543;SDS011;1786;52.870;9.578;2022-12-07T07:03:36;11.10;;;2.70;;
3543;SDS011;1786;52.870;9.578;2022-12-07T07:06:04;8.40;;;3.00;;
3543;SDS011;1786;52.870;9.578;2022-12-07T07:08:32;2.90;;;2.63;;
3543;SDS011;1786;52.870;9.578;2022-12-07T07:11:00;3.00;;;2.43;;
3543;SDS011;1786;52.870;9.578;2022-12-07T07:13:26;4.50;;;2.47;;
3543;SDS011;1786;52.870;9.578;2022-12-07T07:15:54;3.90;;;2.40;;
3543;SDS011;1786;52.870;9.578;2022-12-07T07:18:21;3.13;;;2.50;;
3543;SDS011;1786;52.870;9.578;2022-12-07T07:20:49;2.60;;;2.40;;
3543;SDS011;1786;52.870;9.578;2022-12-07T07:23:17;2.50;;;2.30;;
3543;SDS011;1786;52.870;9.578;2022-12-07T07:25:45;5.53;;;1.97;;
3543;SDS011;1786;52.870;9.578;2022-12-07T07:28:12;5.80;;;2.60;;
3543;SDS011;1786;52.870;9.578;2022-12-07T07:30:39;2.80;;;1.83;;
3543;SDS011;1786;52.870;9.578;2022-12-07T07:33:06;1.70;;;1.60;;
3543;SDS011;1786;52.870;9.578;2022-12-07T07:35:33;3.77;;;1.83;;
3543;SDS011;1786;52.870;9.578;2022-12-07T07:38:01;2.27;;;1.70;;
3543;SDS011;1786;52.870;9.578;2022-12-07T07:40:28;1.83;;;1.73;;
3543;SDS011;1786;52.870;9.578;2022-12-07T07:42:55;5.70;;;2.40;;
3543;SDS011;1786;52.870;9.578;2022-12-07T07:45:23;3.87;;;2.13;;
3543;SDS011;1786;52.870;9.578;2022-12-07T07:47:51;3.77;;;1.80;;
3543;SDS011;1786;52.870;9.578;2022-12-07T07:50:19;4.90;;;2.00;;
3543;SDS011;1786;52.870;9.578;2022-12-07T07:52:47;1.97;;;1.77;;
3543;SDS011;1786;52.870;9.578;2022-12-07T07:55:14;6.47;;;2.60;;
3543;SDS011;1786;52.870;9.578;2022-12-07T07:57:41;2.03;;;1.90;;
3543;SDS011;1786;52.870;9.578;2022-12-07T08:00:09;3.23;;;2.03;;
3543;SDS011;1786;52.870;9.578;2022-12-07T08:02:38;1.73;;;1.63;;
3543;SDS011;1786;52.870;9.578;2022-12-07T08:05:05;6.83;;;2.60;;
3543;SDS011;1786;52.870;9.578;2022-12-07T08:07:32;7.40;;;2.90;;
3543;SDS011;1786;52.870;9.578;2022-12-07T08:09:59;2.23;;;2.13;;
3543;SDS011;1786;52.870;9.578;2022-12-07T08:12:27;7.00;;;3.30;;
3543;SDS011;1786;52.870;9.578;2022-12-07T08:14:53;2.60;;;2.40;;
3543;SDS011;1786;52.870;9.578;2022-12-07T08:17:20;9.37;;;4.63;;
3543;SDS011;1786;52.870;9.578;2022-12-07T08:19:47;4.90;;;3.00;;
3543;SDS011;1786;52.870;9.578;2022-12-07T08:22:13;8.40;;;2.53;;
3543;SDS011;1786;52.870;9.578;2022-12-07T08:24:40;4.73;;;2.50;;
3543;SDS011;1786;52.870;9.578;2022-12-07T08:27:07;5.63;;;2.67;;
3543;SDS011;1786;52.870;9.578;2022-12-07T08:29:33;11.33;;;3.20;;
3543;SDS011;1786;52.870;9.578;2022-12-07T08:32:00;5.33;;;2.23;;
3543;SDS011;1786;52.870;9.578;2022-12-07T08:34:34;6.20;;;2.70;;
3543;SDS011;1786;52.870;9.578;2022-12-07T08:37:02;2.53;;;2.33;;
3543;SDS011;1786;52.870;9.578;2022-12-07T08:39:28;7.03;;;2.33;;
3543;SDS011;1786;52.870;9.578;2022-12-07T08:41:57;3.93;;;2.27;;
3543;SDS011;1786;52.870;9.578;2022-12-07T08:44:24;10.37;;;1.87;;
3543;SDS011;1786;52.870;9.578;2022-12-07T08:46:53;4.73;;;2.20;;
3543;SDS011;1786;52.870;9.578;2022-12-07T08:49:26;8.03;;;2.40;;
3543;SDS011;1786;52.870;9.578;2022-12-07T08:51:58;2.60;;;1.77;;
3543;SDS011;1786;52.870;9.578;2022-12-07T08:54:24;7.13;;;2.33;;
3543;SDS011;1786;52.870;9.578;2022-12-07T08:56:52;4.93;;;2.00;;
3543;SDS011;1786;52.870;9.578;2022-12-07T08:59:26;3.87;;;2.00;;
3543;SDS011;1786;52.870;9.578;2022-12-07T09:01:54;10.07;;;2.60;;
3543;SDS011;1786;52.870;9.578;2022-12-07T09:04:20;5.97;;;2.20;;
3543;SDS011;1786;52.870;9.578;2022-12-07T09:06:47;8.13;;;1.90;;
3543;SDS011;1786;52.870;9.578;2022-12-07T09:09:15;3.70;;;2.07;;
3543;SDS011;1786;52.870;9.578;2022-12-07T09:11:42;4.70;;;1.93;;
3543;SDS011;1786;52.870;9.578;2022-12-07T09:14:11;6.10;;;1.90;;
3543;SDS011;1786;52.870;9.578;2022-12-07T09:16:39;5.00;;;1.53;;
3543;SDS011;1786;52.870;9.578;2022-12-07T09:19:07;3.70;;;1.33;;
3543;SDS011;1786;52.870;9.578;2022-12-07T09:21:34;5.83;;;1.87;;
3543;SDS011;1786;52.870;9.578;2022-12-07T09:24:01;3.30;;;1.60;;
3543;SDS011;1786;52.870;9.578;2022-12-07T09:26:28;1.17;;;1.17;;
3543;SDS011;1786;52.870;9.578;2022-12-07T09:28:55;2.20;;;1.47;;
3543;SDS011;1786;52.870;9.578;2022-12-07T09:31:22;1.40;;;1.30;;
3543;SDS011;1786;52.870;9.578;2022-12-07T09:33:55;2.60;;;1.43;;
3543;SDS011;1786;52.870;9.578;2022-12-07T09:36:23;1.30;;;1.30;;
3543;SDS011;1786;52.870;9.578;2022-12-07T09:38:50;2.63;;;0.90;;
3543;SDS011;1786;52.870;9.578;2022-12-07T09:41:17;2.43;;;1.20;;
3543;SDS011;1786;52.870;9.578;2022-12-07T09:43:45;1.50;;;1.40;;
3543;SDS011;1786;52.870;9.578;2022-12-07T09:46:14;2.50;;;2.30;;
3543;SDS011;1786;52.870;9.578;2022-12-07T09:48:43;3.23;;;2.80;;
3543;SDS011;1786;52.870;9.578;2022-12-07T09:51:14;5.60;;;3.17;;
3543;SDS011;1786;52.870;9.578;2022-12-07T09:53:50;3.50;;;3.20;;
3543;SDS011;1786;52.870;9.578;2022-12-07T09:56:20;6.50;;;3.90;;
3543;SDS011;1786;52.870;9.578;2022-12-07T09:58:48;5.07;;;4.43;;
3543;SDS011;1786;52.870;9.578;2022-12-07T10:01:34;9.13;;;3.43;;
3543;SDS011;1786;52.870;9.578;2022-12-07T10:06:41;4.37;;;2.60;;
3543;SDS011;1786;52.870;9.578;2022-12-07T10:09:17;3.13;;;2.90;;
3543;SDS011;1786;52.870;9.578;2022-12-07T10:12:05;3.90;;;2.20;;
3543;SDS011;1786;52.870;9.578;2022-12-07T10:14:34;2.97;;;2.63;;
3543;SDS011;1786;52.870;9.578;2022-12-07T10:22:38;3.57;;;1.90;;
3543;SDS011;1786;52.870;9.578;2022-12-07T10:25:08;3.80;;;1.93;;
3543;SDS011;1786;52.870;9.578;2022-12-07T10:27:56;6.60;;;1.50;;
3543;SDS011;1786;52.870;9.578;2022-12-07T10:30:24;4.73;;;1.47;;
3543;SDS011;1786;52.870;9.578;2022-12-07T10:32:51;3.13;;;1.40;;
3543;SDS011;1786;52.870;9.578;2022-12-07T10:37:48;5.10;;;1.20;;
3543;SDS011;1786;52.870;9.578;2022-12-07T10:43:01;2.93;;;1.10;;
3543;SDS011;1786;52.870;9.578;2022-12-07T10:45:32;1.07;;;0.97;;
3543;SDS011;1786;52.870;9.578;2022-12-07T10:59:12;2.83;;;1.17;;
3543;SDS011;1786;52.870;9.578;2022-12-07T11:04:36;2.40;;;1.33;;
3543;SDS011;1786;52.870;9.578;2022-12-07T11:08:01;1.57;;;1.33;;
3543;SDS011;1786;52.870;9.578;2022-12-07T11:10:36;7.30;;;3.10;;
3543;SDS011;1786;52.870;9.578;2022-12-07T11:18:39;8.00;;;2.87;;
3543;SDS011;1786;52.870;9.578;2022-12-07T11:21:09;4.20;;;2.93;;
3543;SDS011;1786;52.870;9.578;2022-12-07T11:28:58;4.50;;;4.20;;
3543;SDS011;1786;52.870;9.578;2022-12-07T11:37:41;3.90;;;3.60;;
3543;SDS011;1786;52.870;9.578;2022-12-07T11:42:41;3.47;;;3.27;;
3543;SDS011;1786;52.870;9.578;2022-12-07T11:45:16;3.30;;;3.10;;
3543;SDS011;1786;52.870;9.578;2022-12-07T11:47:54;3.27;;;3.07;;
3543;SDS011;1786;52.870;9.578;2022-12-07T11:55:51;4.70;;;3.27;;
3543;SDS011;1786;52.870;9.578;2022-12-07T11:58:30;3.60;;;3.30;;
3543;SDS011;1786;52.870;9.578;2022-12-07T12:03:45;5.43;;;3.00;;
3543;SDS011;1786;52.870;9.578;2022-12-07T12:06:27;6.80;;;2.70;;
3543;SDS011;1786;52.870;9.578;2022-12-07T12:15:15;6.17;;;2.07;;
3543;SDS011;1786;52.870;9.578;2022-12-07T12:17:59;3.27;;;2.20;;
3543;SDS011;1786;52.870;9.578;2022-12-07T12:20:40;4.10;;;1.77;;
3543;SDS011;1786;52.870;9.578;2022-12-07T12:23:20;4.73;;;1.77;;
3543;SDS011;1786;52.870;9.578;2022-12-07T12:25:55;1.80;;;1.37;;
3543;SDS011;1786;52.870;9.578;2022-12-07T12:31:09;4.73;;;1.90;;
3543;SDS011;1786;52.870;9.578;2022-12-07T12:33:36;7.60;;;1.43;;
3543;SDS011;1786;52.870;9.578;2022-12-07T12:36:18;1.43;;;1.33;;
3543;SDS011;1786;52.870;9.578;2022-12-07T12:51:46;6.00;;;1.50;;
3543;SDS011;1786;52.870;9.578;2022-12-07T12:56:51;7.97;;;1.63;;
3543;SDS011;1786;52.870;9.578;2022-12-07T13:02:46;9.60;;;1.30;;
3543;SDS011;1786;52.870;9.578;2022-12-07T13:07:47;4.30;;;1.73;;
3543;SDS011;1786;52.870;9.578;2022-12-07T13:13:40;5.80;;;1.50;;
3543;SDS011;1786;52.870;9.578;2022-12-07T13:34:01;3.47;;;1.30;;
3543;SDS011;1786;52.870;9.578;2022-12-07T13:36:38;2.20;;;0.83;;
3543;SDS011;1786;52.870;9.578;2022-12-07T13:39:22;0.93;;;0.70;;
3543;SDS011;1786;52.870;9.578;2022-12-07T13:41:52;0.70;;;0.70;;
3543;SDS011;1786;52.870;9.578;2022-12-07T13:44:21;5.00;;;0.73;;
3543;SDS011;1786;52.870;9.578;2022-12-07T13:47:11;3.83;;;1.00;;
3543;SDS011;1786;52.870;9.578;2022-12-07T13:49:51;1.90;;;0.90;;
3543;SDS011;1786;52.870;9.578;2022-12-07T13:52:28;3.23;;;1.60;;
3543;SDS011;1786;52.870;9.578;2022-12-07T13:54:57;11.80;;;2.67;;
3543;SDS011;1786;52.870;9.578;2022-12-07T13:57:27;7.30;;;1.97;;
3543;SDS011;1786;52.870;9.578;2022-12-07T13:59:57;2.93;;;2.47;;
3543;SDS011;1786;52.870;9.578;2022-12-07T14:02:28;4.53;;;4.10;;
3543;SDS011;1786;52.870;9.578;2022-12-07T14:05:08;4.23;;;3.50;;
3543;SDS011;1786;52.870;9.578;2022-12-07T14:07:34;5.03;;;3.97;;
3543;SDS011;1786;52.870;9.578;2022-12-07T14:10:03;5.07;;;4.60;;
3543;SDS011;1786;52.870;9.578;2022-12-07T14:12:32;3.03;;;2.80;;
3543;SDS011;1786;52.870;9.578;2022-12-07T14:15:02;3.93;;;1.80;;
3543;SDS011;1786;52.870;9.578;2022-12-07T14:17:30;2.50;;;1.70;;
3543;SDS011;1786;52.870;9.578;2022-12-07T14:19:58;4.80;;;2.10;;
3543;SDS011;1786;52.870;9.578;2022-12-07T14:22:28;8.40;;;1.60;;
3543;SDS011;1786;52.870;9.578;2022-12-07T14:27:46;4.30;;;1.50;;
3543;SDS011;1786;52.870;9.578;2022-12-07T14:30:15;3.83;;;1.50;;
3543;SDS011;1786;52.870;9.578;2022-12-07T14:32:43;2.73;;;1.60;;
3543;SDS011;1786;52.870;9.578;2022-12-07T14:35:15;8.27;;;2.63;;
3543;SDS011;1786;52.870;9.578;2022-12-07T14:37:44;5.63;;;3.00;;
3543;SDS011;1786;52.870;9.578;2022-12-07T14:40:14;8.67;;;5.37;;
3543;SDS011;1786;52.870;9.578;2022-12-07T14:42:43;9.00;;;1.93;;
3543;SDS011;1786;52.870;9.578;2022-12-07T14:45:16;4.53;;;1.50;;
3543;SDS011;1786;52.870;9.578;2022-12-07T14:47:44;2.50;;;1.90;;
3543;SDS011;1786;52.870;9.578;2022-12-07T14:50:33;5.90;;;2.43;;
3543;SDS011;1786;52.870;9.578;2022-12-07T14:53:10;10.63;;;5.00;;
3543;SDS011;1786;52.870;9.578;2022-12-07T14:55:48;23.80;;;12.47;;
3543;SDS011;1786;52.870;9.578;2022-12-07T14:58:15;20.23;;;9.50;;
3543;SDS011;1786;52.870;9.578;2022-12-07T15:00:44;4.33;;;3.50;;
3543;SDS011;1786;52.870;9.578;2022-12-07T15:03:11;2.60;;;1.90;;
3543;SDS011;1786;52.870;9.578;2022-12-07T15:05:39;3.13;;;1.50;;
3543;SDS011;1786;52.870;9.578;2022-12-07T15:08:11;2.10;;;2.00;;
3543;SDS011;1786;52.870;9.578;2022-12-07T15:10:39;4.33;;;2.87;;
3543;SDS011;1786;52.870;9.578;2022-12-07T15:13:07;6.43;;;3.10;;
3543;SDS011;1786;52.870;9.578;2022-12-07T15:15:54;3.67;;;1.70;;
3543;SDS011;1786;52.870;9.578;2022-12-07T15:18:22;4.70;;;2.20;;
3543;SDS011;1786;52.870;9.578;2022-12-07T15:20:49;2.47;;;1.30;;
3543;SDS011;1786;52.870;9.578;2022-12-07T15:23:16;3.43;;;2.67;;
3543;SDS011;1786;52.870;9.578;2022-12-07T15:25:43;4.47;;;3.03;;
3543;SDS011;1786;52.870;9.578;2022-12-07T15:28:12;3.30;;;1.57;;
3543;SDS011;1786;52.870;9.578;2022-12-07T15:30:39;2.90;;;2.00;;
3543;SDS011;1786;52.870;9.578;2022-12-07T15:33:09;8.73;;;3.37;;
3543;SDS011;1786;52.870;9.578;2022-12-07T15:35:40;6.57;;;2.40;;
3543;SDS011;1786;52.870;9.578;2022-12-07T15:38:07;6.87;;;3.50;;
3543;SDS011;1786;52.870;9.578;2022-12-07T15:40:34;3.27;;;2.30;;
3543;SDS011;1786;52.870;9.578;2022-12-07T15:43:01;8.43;;;5.33;;
3543;SDS011;1786;52.870;9.578;2022-12-07T15:45:28;9.93;;;4.00;;
3543;SDS011;1786;52.870;9.578;2022-12-07T15:47:55;8.10;;;4.00;;
3543;SDS011;1786;52.870;9.578;2022-12-07T15:50:42;3.53;;;1.87;;
3543;SDS011;1786;52.870;9.578;2022-12-07T15:53:09;7.57;;;4.43;;
3543;SDS011;1786;52.870;9.578;2022-12-07T15:55:37;1.90;;;1.80;;
3543;SDS011;1786;52.870;9.578;2022-12-07T15:58:05;4.50;;;2.90;;
3543;SDS011;1786;52.870;9.578;2022-12-07T16:00:32;4.47;;;3.20;;
3543;SDS011;1786;52.870;9.578;2022-12-07T16:02:59;4.60;;;3.47;;
3543;SDS011;1786;52.870;9.578;2022-12-07T16:05:25;5.60;;;4.47;;
3543;SDS011;1786;52.870;9.578;2022-12-07T16:07:52;2.60;;;2.43;;
3543;SDS011;1786;52.870;9.578;2022-12-07T16:10:19;4.50;;;3.53;;
3543;SDS011;1786;52.870;9.578;2022-12-07T16:12:45;4.77;;;4.20;;
3543;SDS011;1786;52.870;9.578;2022-12-07T16:15:12;7.47;;;5.73;;
3543;SDS011;1786;52.870;9.578;2022-12-07T16:17:39;6.07;;;5.17;;
3543;SDS011;1786;52.870;9.578;2022-12-07T16:20:05;4.87;;;3.20;;
3543;SDS011;1786;52.870;9.578;2022-12-07T16:22:34;2.90;;;2.70;;
3543;SDS011;1786;52.870;9.578;2022-12-07T16:25:01;2.80;;;2.60;;
3543;SDS011;1786;52.870;9.578;2022-12-07T16:27:28;1.80;;;1.70;;
3543;SDS011;1786;52.870;9.578;2022-12-07T16:29:55;2.60;;;2.40;;
3543;SDS011;1786;52.870;9.578;2022-12-07T16:32:22;4.63;;;2.43;;
3543;SDS011;1786;52.870;9.578;2022-12-07T16:34:48;2.60;;;2.27;;
3543;SDS011;1786;52.870;9.578;2022-12-07T16:37:15;3.10;;;2.10;;
3543;SDS011;1786;52.870;9.578;2022-12-07T16:39:42;3.60;;;2.90;;
3543;SDS011;1786;52.870;9.578;2022-12-07T16:42:08;3.00;;;2.87;;
3543;SDS011;1786;52.870;9.578;2022-12-07T16:44:35;7.43;;;5.40;;
3543;SDS011;1786;52.870;9.578;2022-12-07T16:47:01;3.50;;;3.07;;
3543;SDS011;1786;52.870;9.578;2022-12-07T16:49:28;3.27;;;2.60;;
3543;SDS011;1786;52.870;9.578;2022-12-07T16:51:54;4.70;;;2.50;;
3543;SDS011;1786;52.870;9.578;2022-12-07T16:54:41;5.87;;;2.70;;
3543;SDS011;1786;52.870;9.578;2022-12-07T16:57:08;3.77;;;3.47;;
3543;SDS011;1786;52.870;9.578;2022-12-07T16:59:35;6.90;;;4.90;;
3543;SDS011;1786;52.870;9.578;2022-12-07T17:02:01;16.93;;;7.47;;
3543;SDS011;1786;52.870;9.578;2022-12-07T17:04:28;9.87;;;7.07;;
3543;SDS011;1786;52.870;9.578;2022-12-07T17:06:55;8.13;;;4.87;;
3543;SDS011;1786;52.870;9.578;2022-12-07T17:09:22;5.23;;;4.53;;
3543;SDS011;1786;52.870;9.578;2022-12-07T17:11:49;3.90;;;3.60;;
3543;SDS011;1786;52.870;9.578;2022-12-07T17:14:15;5.43;;;4.97;;
3543;SDS011;1786;52.870;9.578;2022-12-07T17:17:00;4.73;;;4.33;;
3543;SDS011;1786;52.870;9.578;2022-12-07T17:19:27;4.23;;;3.93;;
3543;SDS011;1786;52.870;9.578;2022-12-07T17:21:54;3.90;;;3.60;;
3543;SDS011;1786;52.870;9.578;2022-12-07T17:24:21;3.30;;;3.10;;
3543;SDS011;1786;52.870;9.578;2022-12-07T17:26:47;5.47;;;3.37;;
3543;SDS011;1786;52.870;9.578;2022-12-07T17:29:16;8.40;;;4.40;;
3543;SDS011;1786;52.870;9.578;2022-12-07T17:31:44;5.07;;;4.57;;
3543;SDS011;1786;52.870;9.578;2022-12-07T17:34:17;9.23;;;4.73;;
3543;SDS011;1786;52.870;9.578;2022-12-07T17:36:44;5.83;;;4.83;;
3543;SDS011;1786;52.870;9.578;2022-12-07T17:39:15;7.27;;;4.43;;
3543;SDS011;1786;52.870;9.578;2022-12-07T17:41:44;3.93;;;3.53;;
3543;SDS011;1786;52.870;9.578;2022-12-07T17:44:29;7.90;;;4.30;;
3543;SDS011;1786;52.870;9.578;2022-12-07T17:46:56;3.77;;;3.47;;
3543;SDS011;1786;52.870;9.578;2022-12-07T17:49:28;3.63;;;2.80;;
3543;SDS011;1786;52.870;9.578;2022-12-07T17:51:55;3.03;;;2.93;;
3543;SDS011;1786;52.870;9.578;2022-12-07T17:54:41;4.03;;;3.43;;